createdAt,value
2022-09-04T00:00:39.232Z,1.27
2022-09-04T00:03:15.543Z,1.10
2022-09-04T00:05:46.492Z,1.20
2022-09-04T00:08:24.398Z,1.20
2022-09-04T00:10:55.617Z,1.20
2022-09-04T00:13:27.026Z,1.02
2022-09-04T00:15:58.030Z,1.20
2022-09-04T00:18:29.368Z,1.10
2022-09-04T00:20:58.617Z,1.00
2022-09-04T00:23:28.652Z,1.00
2022-09-04T00:26:02.330Z,1.30
2022-09-04T00:28:33.655Z,1.10
2022-09-04T00:31:04.310Z,1.15
2022-09-04T00:33:33.486Z,1.20
2022-09-04T00:36:03.227Z,1.25
2022-09-04T00:38:37.442Z,1.02
2022-09-04T00:41:10.432Z,1.00
2022-09-04T00:43:50.399Z,0.95
2022-09-04T00:46:30.218Z,0.85
2022-09-04T00:49:03.877Z,1.00
2022-09-04T00:51:36.587Z,0.80
2022-09-04T00:54:19.595Z,1.00
2022-09-04T00:57:02.267Z,1.60
2022-09-04T00:59:39.884Z,1.00
2022-09-04T01:02:09.331Z,1.20
2022-09-04T01:04:39.135Z,0.95
2022-09-04T01:07:22.992Z,0.90
2022-09-04T01:12:25.190Z,1.00
2022-09-04T01:14:55.901Z,1.00
2022-09-04T01:17:27.617Z,0.90
2022-09-04T01:19:58.679Z,0.93
2022-09-04T01:22:32.716Z,0.90
2022-09-04T01:25:11.043Z,1.20
2022-09-04T01:27:45.529Z,1.10
2022-09-04T01:30:13.674Z,0.88
2022-09-04T01:32:45.057Z,0.82
2022-09-04T01:35:18.795Z,0.70
2022-09-04T01:37:51.434Z,0.90
2022-09-04T01:40:35.138Z,1.10
2022-09-04T01:43:06.968Z,0.90
2022-09-04T01:45:39.124Z,0.95
2022-09-04T01:48:07.990Z,1.15
2022-09-04T01:50:36.001Z,0.90
2022-09-04T01:53:07.614Z,1.00
2022-09-04T01:55:36.769Z,1.20
2022-09-04T01:58:12.522Z,1.20
2022-09-04T02:00:43.171Z,0.93
2022-09-04T02:03:16.426Z,0.90
2022-09-04T02:05:49.516Z,1.20
2022-09-04T02:08:21.877Z,1.10
2022-09-04T02:10:52.484Z,0.93
2022-09-04T02:13:23.494Z,0.77
2022-09-04T02:15:58.762Z,1.00
2022-09-04T02:18:36.054Z,0.88
2022-09-04T02:21:06.195Z,0.90
2022-09-04T02:23:35.990Z,1.02
2022-09-04T02:26:07.263Z,0.85
2022-09-04T02:28:41.492Z,0.90
2022-09-04T02:31:14.218Z,1.10
2022-09-04T02:33:47.102Z,0.80
2022-09-04T02:36:18.747Z,0.82
2022-09-04T02:38:51.159Z,0.90
2022-09-04T02:41:21.559Z,1.02
2022-09-04T02:43:58.918Z,0.82
2022-09-04T02:49:03.408Z,0.93
2022-09-04T02:51:39.048Z,0.80
2022-09-04T02:54:10.946Z,0.82
2022-09-04T02:56:43.715Z,0.80
2022-09-04T02:59:29.379Z,0.82
2022-09-04T03:01:59.460Z,0.90
2022-09-04T03:04:31.795Z,0.80
2022-09-04T03:07:02.415Z,1.00
2022-09-04T03:09:32.374Z,0.88
2022-09-04T03:12:03.708Z,1.20
2022-09-04T03:14:36.902Z,0.80
2022-09-04T03:17:07.457Z,0.80
2022-09-04T03:19:37.675Z,0.85
2022-09-04T03:22:08.350Z,0.80
2022-09-04T03:24:39.080Z,0.63
2022-09-04T03:27:08.246Z,0.52
2022-09-04T03:29:42.694Z,0.70
2022-09-04T03:32:16.814Z,0.70
2022-09-04T03:34:49.302Z,0.77
2022-09-04T03:37:31.543Z,0.80
2022-09-04T03:40:06.856Z,0.85
2022-09-04T03:42:41.133Z,0.80
2022-09-04T03:45:16.267Z,0.70
2022-09-04T03:47:47.419Z,0.80
2022-09-04T03:50:20.519Z,0.70
2022-09-04T03:52:51.211Z,0.80
2022-09-04T03:55:26.815Z,0.77
2022-09-04T03:57:59.635Z,0.80
2022-09-04T04:00:30.863Z,0.88
2022-09-04T04:03:07.043Z,0.70
2022-09-04T04:05:40.460Z,0.60
2022-09-04T04:08:17.796Z,0.73
2022-09-04T04:13:16.989Z,0.55
2022-09-04T04:15:52.332Z,0.80
2022-09-04T04:18:35.803Z,0.85
2022-09-04T04:21:07.021Z,0.95
2022-09-04T04:23:57.976Z,1.00
2022-09-04T04:26:40.914Z,0.85
2022-09-04T04:29:17.728Z,1.08
2022-09-04T04:32:10.720Z,0.90
2022-09-04T04:34:54.000Z,0.80
2022-09-04T04:37:27.804Z,0.73
2022-09-04T04:40:00.279Z,1.10
2022-09-04T04:42:33.266Z,0.95
2022-09-04T04:45:27.500Z,0.90
2022-09-04T04:48:12.209Z,0.82
2022-09-04T04:50:42.924Z,0.80
2022-09-04T04:53:15.927Z,0.95
2022-09-04T04:55:49.523Z,0.82
2022-09-04T04:58:44.124Z,0.90
2022-09-04T05:01:15.978Z,0.88
2022-09-04T05:03:50.886Z,1.15
2022-09-04T05:06:21.890Z,0.95
2022-09-04T05:08:55.374Z,0.80
2022-09-04T05:11:27.610Z,0.90
2022-09-04T05:14:01.823Z,0.80
2022-09-04T05:16:35.667Z,0.82
2022-09-04T05:19:08.341Z,0.70
2022-09-04T05:21:37.280Z,0.85
2022-09-04T05:24:06.339Z,0.90
2022-09-04T05:26:37.095Z,0.80
2022-09-04T05:29:08.071Z,0.80
2022-09-04T05:31:43.051Z,1.10
2022-09-04T05:34:17.363Z,0.70
2022-09-04T05:36:49.782Z,0.95
2022-09-04T05:39:23.790Z,1.20
2022-09-04T05:42:02.125Z,0.70
2022-09-04T05:44:37.228Z,1.05
2022-09-04T05:47:09.879Z,1.00
2022-09-04T05:49:46.296Z,0.95
2022-09-04T05:52:37.735Z,1.42
2022-09-04T05:55:25.951Z,0.90
2022-09-04T05:57:59.948Z,0.80
2022-09-04T06:00:29.087Z,0.95
2022-09-04T06:03:08.493Z,0.70
2022-09-04T06:05:45.477Z,0.90
2022-09-04T06:08:26.522Z,0.95
2022-09-04T06:11:02.142Z,0.90
2022-09-04T06:13:45.767Z,0.88
2022-09-04T06:16:22.037Z,0.90
2022-09-04T06:18:55.818Z,1.00
2022-09-04T06:21:40.901Z,0.90
2022-09-04T06:24:17.729Z,1.23
2022-09-04T06:26:57.471Z,1.10
2022-09-04T06:29:30.394Z,0.90
2022-09-04T06:32:05.005Z,0.90
2022-09-04T06:34:39.412Z,1.13
2022-09-04T06:37:12.147Z,0.90
2022-09-04T06:39:55.881Z,1.33
2022-09-04T06:44:56.420Z,0.98
2022-09-04T06:47:28.693Z,1.35
2022-09-04T06:50:06.010Z,1.10
2022-09-04T06:55:05.963Z,1.10
2022-09-04T06:57:51.160Z,0.98
2022-09-04T07:00:19.909Z,1.10
2022-09-04T07:02:59.379Z,1.20
2022-09-04T07:05:30.177Z,1.30
2022-09-04T07:08:02.354Z,1.23
2022-09-04T07:10:33.320Z,1.13
2022-09-04T07:13:23.492Z,1.10
2022-09-04T07:16:02.739Z,1.20
2022-09-04T07:18:44.799Z,1.30
2022-09-04T07:21:15.363Z,1.10
2022-09-04T07:23:46.839Z,1.13
2022-09-04T07:26:20.219Z,1.17
2022-09-04T07:28:57.551Z,1.10
2022-09-04T07:31:26.860Z,1.30
2022-09-04T07:33:59.006Z,1.30
2022-09-04T07:36:31.649Z,1.38
2022-09-04T07:39:05.479Z,1.33
2022-09-04T07:41:40.486Z,1.30
2022-09-04T07:44:10.560Z,1.35
2022-09-04T07:46:44.393Z,1.30
2022-09-04T07:49:14.783Z,1.50
2022-09-04T07:51:43.978Z,1.65
2022-09-04T07:54:22.470Z,1.40
2022-09-04T07:56:59.888Z,1.40
2022-09-04T07:59:34.447Z,1.40
2022-09-04T08:02:09.328Z,1.23
2022-09-04T08:04:52.882Z,1.23
2022-09-04T08:09:58.240Z,1.50
2022-09-04T08:12:34.927Z,1.85
2022-09-04T08:15:11.178Z,1.67
2022-09-04T08:17:48.024Z,1.23
2022-09-04T08:20:21.068Z,1.38
2022-09-04T08:22:52.867Z,1.75
2022-09-04T08:25:24.759Z,1.40
2022-09-04T08:28:00.159Z,1.50
2022-09-04T08:30:31.167Z,1.48
2022-09-04T08:33:10.353Z,1.50
2022-09-04T08:35:42.266Z,1.45
2022-09-04T08:38:22.361Z,1.50
2022-09-04T08:41:06.812Z,1.45
2022-09-04T08:43:40.932Z,1.60
2022-09-04T08:46:27.077Z,1.67
2022-09-04T08:49:17.056Z,1.42
2022-09-04T08:52:02.163Z,1.52
2022-09-04T08:54:44.529Z,1.35
2022-09-04T08:57:34.639Z,1.65
2022-09-04T09:00:06.495Z,1.55
2022-09-04T09:03:03.755Z,1.60
2022-09-04T09:05:46.026Z,1.60
2022-09-04T09:08:16.804Z,1.60
2022-09-04T09:11:03.420Z,1.38
2022-09-04T09:13:45.731Z,1.63
2022-09-04T09:16:31.070Z,1.17
2022-09-04T09:19:10.456Z,1.52
2022-09-04T09:21:43.435Z,1.50
2022-09-04T09:24:39.743Z,1.33
2022-09-04T09:27:19.256Z,1.20
2022-09-04T09:30:01.550Z,1.08
2022-09-04T09:32:50.304Z,1.10
2022-09-04T09:35:37.053Z,1.35
2022-09-04T09:38:16.374Z,1.40
2022-09-04T09:41:10.635Z,1.13
2022-09-04T09:43:56.598Z,1.20
2022-09-04T09:46:36.488Z,1.10
2022-09-04T09:49:14.842Z,1.20
2022-09-04T09:51:50.364Z,1.30
2022-09-04T09:54:41.016Z,1.40
2022-09-04T09:57:33.440Z,1.20
2022-09-04T10:00:10.199Z,1.42
2022-09-04T10:02:49.123Z,1.20
2022-09-04T10:05:37.439Z,1.20
2022-09-04T10:08:14.411Z,1.10
2022-09-04T10:10:50.222Z,1.15
2022-09-04T10:13:26.982Z,1.15
2022-09-04T10:18:42.203Z,1.50
2022-09-04T10:21:20.827Z,0.98
2022-09-04T10:24:05.972Z,1.20
2022-09-04T10:26:43.642Z,1.65
2022-09-04T10:29:28.711Z,1.75
2022-09-04T10:32:07.739Z,1.50
2022-09-04T10:34:47.860Z,1.30
2022-09-04T10:37:23.666Z,2.03
2022-09-04T10:40:18.314Z,1.40
2022-09-04T10:42:53.490Z,1.40
2022-09-04T10:45:26.030Z,1.65
2022-09-04T10:48:08.262Z,1.50
2022-09-04T10:50:46.390Z,1.40
2022-09-04T10:53:31.339Z,1.55
2022-09-04T10:56:05.878Z,1.42
2022-09-04T10:58:40.845Z,1.30
2022-09-04T11:01:28.072Z,1.50
2022-09-04T11:04:13.159Z,1.45
2022-09-04T11:07:10.781Z,1.50
2022-09-04T11:09:59.629Z,1.58
2022-09-04T11:12:46.162Z,1.20
2022-09-04T11:15:31.593Z,1.70
2022-09-04T11:18:06.374Z,1.23
2022-09-04T11:20:51.775Z,1.23
2022-09-04T11:23:33.777Z,1.30
2022-09-04T11:26:14.518Z,1.40
2022-09-04T11:28:50.319Z,1.40
2022-09-04T11:31:48.308Z,1.50
2022-09-04T11:34:34.935Z,1.50
2022-09-04T11:37:17.214Z,1.42
2022-09-04T11:40:03.514Z,1.38
2022-09-04T11:42:33.183Z,1.42
2022-09-04T11:45:21.523Z,1.25
2022-09-04T11:47:57.839Z,1.10
2022-09-04T11:50:35.667Z,1.25
2022-09-04T11:53:19.097Z,1.30
2022-09-04T11:56:00.649Z,1.27
2022-09-04T11:58:37.127Z,1.40
2022-09-04T12:03:50.154Z,1.27
2022-09-04T12:06:25.026Z,1.50
2022-09-04T12:09:06.251Z,1.20
2022-09-04T12:11:51.577Z,1.25
2022-09-04T12:14:25.232Z,1.30
2022-09-04T12:17:19.632Z,1.00
2022-09-04T12:20:04.248Z,1.20
2022-09-04T12:22:52.357Z,1.20
2022-09-04T12:25:35.424Z,1.13
2022-09-04T12:28:33.969Z,1.30
2022-09-04T12:31:07.621Z,1.23
2022-09-04T12:33:48.078Z,1.20
2022-09-04T12:36:24.485Z,1.30
2022-09-04T12:39:03.504Z,1.15
2022-09-04T12:41:35.190Z,1.27
2022-09-04T12:44:09.216Z,1.40
2022-09-04T12:46:41.494Z,1.00
2022-09-04T12:49:28.912Z,1.20
2022-09-04T12:52:01.805Z,1.30
2022-09-04T12:54:35.091Z,1.30
2022-09-04T12:57:15.219Z,1.10
2022-09-04T12:59:49.013Z,1.10
2022-09-04T13:02:24.147Z,1.30
2022-09-04T13:04:57.378Z,1.17
2022-09-04T13:07:31.758Z,1.10
2022-09-04T13:10:04.531Z,1.20
2022-09-04T13:12:36.646Z,1.00
2022-09-04T13:15:09.892Z,1.05
2022-09-04T13:17:43.571Z,1.27
2022-09-04T13:20:15.034Z,1.40
2022-09-04T13:22:49.090Z,1.40
2022-09-04T13:25:27.228Z,1.38
2022-09-04T13:27:59.927Z,1.17
2022-09-04T13:30:28.582Z,1.92
2022-09-04T13:33:12.144Z,2.10
2022-09-04T13:35:50.335Z,1.70
2022-09-04T13:38:43.679Z,1.40
2022-09-04T13:41:30.360Z,1.35
2022-09-04T13:44:09.331Z,1.40
2022-09-04T13:46:40.870Z,1.80
2022-09-04T13:49:11.309Z,1.23
2022-09-04T13:51:43.022Z,1.17
2022-09-04T13:54:12.625Z,1.08
2022-09-04T13:56:42.983Z,1.20
2022-09-04T13:59:16.154Z,1.10
2022-09-04T14:01:46.045Z,1.10
2022-09-04T14:04:16.719Z,1.05
2022-09-04T14:06:45.484Z,1.02
2022-09-04T14:09:13.623Z,1.30
2022-09-04T14:12:04.250Z,1.05
2022-09-04T14:14:41.163Z,1.40
2022-09-04T14:17:09.307Z,1.27
2022-09-04T14:19:46.270Z,1.40
2022-09-04T14:22:25.955Z,1.02
2022-09-04T14:24:57.681Z,1.05
2022-09-04T14:27:28.438Z,1.08
2022-09-04T14:30:01.997Z,1.10
2022-09-04T14:32:35.018Z,1.30
2022-09-04T14:35:08.497Z,1.10
2022-09-04T14:37:50.837Z,1.40
2022-09-04T14:40:21.190Z,1.50
2022-09-04T14:42:51.280Z,1.23
2022-09-04T14:45:30.768Z,1.17
2022-09-04T14:47:59.965Z,1.50
2022-09-04T14:50:29.363Z,1.30
2022-09-04T14:52:58.403Z,1.30
2022-09-04T14:55:27.580Z,1.30
2022-09-04T14:57:59.335Z,1.20
2022-09-04T15:00:29.825Z,1.05
2022-09-04T15:03:00.620Z,1.30
2022-09-04T15:05:31.145Z,1.27
2022-09-04T15:08:00.170Z,1.10
2022-09-04T15:10:31.537Z,1.13
2022-09-04T15:13:13.834Z,1.08
2022-09-04T15:15:43.439Z,1.23
2022-09-04T15:18:15.885Z,1.20
2022-09-04T15:20:53.742Z,1.20
2022-09-04T15:23:26.403Z,1.35
2022-09-04T15:25:59.490Z,1.30
2022-09-04T15:28:30.059Z,1.27
2022-09-04T15:31:13.267Z,1.20
2022-09-04T15:33:43.204Z,1.10
2022-09-04T15:36:14.859Z,1.15
2022-09-04T15:38:47.159Z,1.20
2022-09-04T15:41:19.697Z,1.20
2022-09-04T15:43:48.563Z,1.10
2022-09-04T15:46:27.440Z,1.10
2022-09-04T15:49:04.842Z,1.17
2022-09-04T15:51:39.542Z,1.17
2022-09-04T15:54:15.367Z,1.20
2022-09-04T15:56:45.894Z,1.30
2022-09-04T15:59:15.995Z,1.02
2022-09-04T16:01:48.282Z,1.00
2022-09-04T16:04:21.921Z,1.35
2022-09-04T16:06:54.425Z,1.20
2022-09-04T16:09:25.743Z,1.00
2022-09-04T16:11:59.694Z,1.10
2022-09-04T16:14:28.748Z,1.17
2022-09-04T16:17:01.747Z,1.17
2022-09-04T16:19:32.827Z,1.20
2022-09-04T16:22:05.376Z,1.42
2022-09-04T16:24:35.530Z,1.30
2022-09-04T16:27:06.519Z,1.10
2022-09-04T16:29:36.433Z,1.23
2022-09-04T16:32:06.760Z,1.15
2022-09-04T16:34:35.217Z,1.27
2022-09-04T16:37:10.093Z,1.10
2022-09-04T16:39:45.561Z,1.17
2022-09-04T16:42:18.565Z,1.20
2022-09-04T16:44:48.813Z,1.45
2022-09-04T16:47:21.289Z,1.65
2022-09-04T16:49:53.879Z,1.23
2022-09-04T16:52:29.816Z,1.55
2022-09-04T16:55:02.944Z,1.30
2022-09-04T16:57:34.176Z,1.20
2022-09-04T17:00:03.239Z,1.40
2022-09-04T17:02:37.730Z,1.30
2022-09-04T17:05:14.784Z,1.50
2022-09-04T17:07:44.745Z,1.42
2022-09-04T17:10:19.739Z,1.30
2022-09-04T17:12:49.514Z,1.50
2022-09-04T17:15:21.033Z,1.80
2022-09-04T17:17:51.138Z,1.45
2022-09-04T17:20:24.124Z,1.35
2022-09-04T17:29:04.238Z,1.65
2022-09-04T17:29:19.621Z,1.48
2022-09-04T17:29:29.421Z,1.67
2022-09-04T17:31:53.848Z,1.48
2022-09-04T17:40:27.751Z,1.40
2022-09-04T17:40:49.127Z,1.50
2022-09-04T17:41:31.154Z,1.25
2022-09-04T17:43:22.809Z,1.38
2022-09-04T17:45:52.912Z,1.25
2022-09-04T17:48:22.565Z,1.40
2022-09-04T17:50:53.645Z,1.20
2022-09-04T17:53:34.237Z,1.48
2022-09-04T17:56:06.789Z,1.50
2022-09-04T17:58:36.625Z,1.80
2022-09-04T18:01:14.934Z,1.73
2022-09-04T18:04:02.931Z,1.98
2022-09-04T18:06:39.885Z,1.52
2022-09-04T18:09:10.962Z,1.40
2022-09-04T18:11:45.778Z,1.73
2022-09-04T18:14:32.502Z,1.52
2022-09-04T18:17:11.779Z,1.70
2022-09-04T18:19:44.100Z,1.73
2022-09-04T18:22:26.600Z,1.90
2022-09-04T18:25:17.160Z,1.60
2022-09-04T18:28:11.438Z,1.60
2022-09-04T18:37:06.172Z,1.52
2022-09-04T18:37:18.975Z,1.67
2022-09-04T18:37:26.391Z,1.83
2022-09-04T18:39:27.307Z,2.70
2022-09-04T18:48:09.665Z,1.65
2022-09-04T18:50:33.817Z,1.55
2022-09-04T18:50:39.645Z,1.60
2022-09-04T18:55:56.576Z,1.60
2022-09-04T18:58:31.318Z,1.88
2022-09-04T19:01:01.508Z,2.15
2022-09-04T19:03:32.438Z,1.67
2022-09-04T19:06:04.675Z,1.60
2022-09-04T19:08:35.976Z,1.42
2022-09-04T19:11:17.470Z,1.92
2022-09-04T19:13:51.726Z,1.83
2022-09-04T19:16:24.194Z,1.70
2022-09-04T19:18:52.175Z,2.30
2022-09-04T19:21:23.367Z,1.80
2022-09-04T19:23:53.858Z,1.90
2022-09-04T19:26:27.103Z,1.65
2022-09-04T19:28:57.110Z,2.03
2022-09-04T19:31:27.695Z,2.30
2022-09-04T19:33:58.702Z,1.73
2022-09-04T19:36:32.170Z,2.10
2022-09-04T19:45:54.060Z,2.15
2022-09-04T19:46:07.119Z,2.08
2022-09-04T19:46:15.174Z,1.98
2022-09-04T19:47:50.301Z,1.85
2022-09-04T19:53:03.460Z,2.20
2022-09-04T19:53:30.162Z,1.90
2022-09-04T19:56:03.444Z,2.13
2022-09-04T19:58:37.912Z,2.00
2022-09-04T20:01:10.828Z,2.08
2022-09-04T20:03:39.868Z,2.88
2022-09-04T20:06:20.600Z,2.40
2022-09-04T20:08:51.803Z,2.05
2022-09-04T20:11:32.403Z,2.22
2022-09-04T20:14:13.490Z,1.95
2022-09-04T20:16:48.528Z,1.98
2022-09-04T20:19:27.615Z,2.20
2022-09-04T20:21:58.179Z,2.53
2022-09-04T20:24:27.761Z,2.13
2022-09-04T20:26:58.459Z,2.65
2022-09-04T20:29:31.267Z,2.10
2022-09-04T20:32:08.212Z,2.15
2022-09-04T20:34:43.713Z,2.03
2022-09-04T20:37:22.481Z,2.00
2022-09-04T20:39:53.842Z,2.20
2022-09-04T20:42:25.429Z,1.98
2022-09-04T20:47:30.646Z,2.17
2022-09-04T20:52:45.080Z,2.45
2022-09-04T20:52:50.300Z,2.17
2022-09-04T20:53:39.830Z,2.22
2022-09-04T20:56:29.557Z,2.10
2022-09-04T21:03:12.775Z,2.08
2022-09-04T21:03:22.929Z,2.50
2022-09-04T21:05:05.740Z,2.38
2022-09-04T21:07:36.202Z,2.50
2022-09-04T21:10:10.417Z,2.17
2022-09-04T21:12:40.083Z,2.20
2022-09-04T21:15:13.967Z,2.10
2022-09-04T21:17:59.071Z,2.22
2022-09-04T21:20:59.153Z,2.38
2022-09-04T21:24:03.656Z,2.53
2022-09-04T21:26:43.537Z,2.08
2022-09-04T21:29:22.475Z,2.22
2022-09-04T21:32:01.286Z,2.00
2022-09-04T21:34:46.040Z,2.40
2022-09-04T21:37:18.076Z,2.38
2022-09-04T21:39:58.546Z,2.08
2022-09-04T21:42:35.677Z,2.47
2022-09-04T21:45:13.089Z,2.08
2022-09-04T21:47:53.915Z,2.58
2022-09-04T21:50:34.273Z,2.17
2022-09-04T21:53:22.835Z,2.10
2022-09-04T22:01:28.504Z,2.35
2022-09-04T22:02:35.548Z,2.47
2022-09-04T22:02:40.453Z,3.40
2022-09-04T22:04:47.142Z,2.15
2022-09-04T22:12:33.090Z,2.17
2022-09-04T22:13:27.366Z,2.50
2022-09-04T22:13:42.963Z,2.10
2022-09-04T22:16:05.423Z,2.13
2022-09-04T22:18:41.056Z,2.42
2022-09-04T22:21:19.527Z,2.38
2022-09-04T22:23:58.070Z,3.17
2022-09-04T22:26:33.738Z,2.13
2022-09-04T22:29:39.724Z,3.22
2022-09-04T22:32:25.327Z,2.22
2022-09-04T22:35:09.118Z,2.40
2022-09-04T22:37:48.779Z,2.40
2022-09-04T22:40:25.784Z,2.10
2022-09-04T22:43:01.331Z,2.60
2022-09-04T22:45:46.359Z,2.67
2022-09-04T22:48:40.762Z,2.28
2022-09-04T22:51:16.633Z,2.22
2022-09-04T22:54:11.312Z,2.83
2022-09-04T22:56:47.023Z,2.30
2022-09-04T22:59:27.024Z,2.30
2022-09-04T23:02:14.021Z,2.25
2022-09-04T23:04:57.271Z,2.50
2022-09-04T23:13:42.562Z,2.40
2022-09-04T23:13:43.008Z,2.45
2022-09-04T23:13:57.712Z,2.40
2022-09-04T23:16:30.874Z,2.60
2022-09-04T23:25:01.672Z,2.65
2022-09-04T23:26:35.203Z,2.80
2022-09-04T23:26:48.447Z,2.42
2022-09-04T23:27:59.115Z,2.63
2022-09-04T23:30:28.157Z,2.13
2022-09-04T23:33:14.930Z,2.80
2022-09-04T23:36:07.350Z,2.65
2022-09-04T23:38:48.350Z,2.60
2022-09-04T23:41:22.723Z,2.45
2022-09-04T23:44:09.016Z,2.53
2022-09-04T23:46:40.920Z,1.95
2022-09-04T23:49:23.925Z,2.30
2022-09-04T23:51:55.605Z,2.63
2022-09-04T23:54:36.224Z,2.65
2022-09-04T23:57:11.172Z,2.60
2022-09-04T23:59:57.305Z,2.33
